Time;durP1;ratioP1;P1;durP2;ratioP2;P2;SDS_P1;SDS_P2;PMS_P1;PMS_P2;Temp;Humidity;BMP_temperature;BMP_pressure;BME280_temperature;BME280_humidity;BME280_pressure;Samples;Min_cycle;Max_cycle;Signal;HPM_P1;HPM_P2
2022/03/01 00:02:07;;;;;;;206.35;94.18;;;;;;;1.06;66.24;102758.47;5012052;28;20496;-69
2022/03/01 00:04:32;;;;;;;63.30;26.80;;;;;;;1.08;66.26;102764.59;5008649;28;20603;-70
2022/03/01 00:07:02;;;;;;;76.78;37.95;;;;;;;1.04;66.28;102763.56;5004239;28;20433;-70
2022/03/01 00:09:27;;;;;;;177.40;74.33;;;;;;;1.01;66.08;102758.22;5015751;28;20037;-70
2022/03/01 00:11:53;;;;;;;113.50;50.08;;;;;;;1.03;65.75;102761.75;5032581;28;20032;-70
2022/03/01 00:14:18;;;;;;;22.98;13.90;;;;;;;1.04;65.90;102764.44;5027046;28;20461;-65
2022/03/01 00:16:46;;;;;;;58.53;26.95;;;;;;;1.04;65.73;102767.00;5018507;28;20040;-65
2022/03/01 00:19:11;;;;;;;188.68;75.95;;;;;;;1.00;65.95;102764.16;5035030;28;20044;-65
2022/03/01 00:21:39;;;;;;;72.72;34.50;;;;;;;0.99;66.44;102760.72;5018591;28;20025;-65
2022/03/01 00:24:07;;;;;;;66.05;31.27;;;;;;;0.93;66.61;102762.03;5019027;28;20540;-65
2022/03/01 00:26:35;;;;;;;54.53;26.50;;;;;;;0.85;66.98;102764.19;5035070;28;20079;-65
2022/03/01 00:29:00;;;;;;;28.30;17.77;;;;;;;0.80;67.33;102765.56;4999272;28;20030;-66
2022/03/01 00:31:28;;;;;;;33.80;18.20;;;;;;;0.76;67.01;102776.50;5012537;28;20029;-65
2022/03/01 00:33:53;;;;;;;30.95;17.52;;;;;;;0.72;67.35;102780.63;5014921;28;20033;-65
2022/03/01 00:36:20;;;;;;;43.50;22.08;;;;;;;0.69;67.58;102768.41;4995481;28;20451;-65
2022/03/01 00:38:45;;;;;;;31.27;17.70;;;;;;;0.66;67.66;102762.16;5016151;28;20026;-65
2022/03/01 00:41:13;;;;;;;48.33;23.40;;;;;;;0.63;67.92;102762.91;5001210;28;20048;-65
2022/03/01 00:43:41;;;;;;;53.58;25.23;;;;;;;0.59;68.40;102765.19;5025818;28;20033;-65
2022/03/01 00:46:06;;;;;;;49.17;23.40;;;;;;;0.54;68.04;102761.44;4995107;28;20050;-66
2022/03/01 00:48:32;;;;;;;62.97;29.25;;;;;;;0.53;68.82;102760.53;5016019;28;20047;-65
2022/03/01 00:50:58;;;;;;;137.43;62.17;;;;;;;0.49;68.45;102758.59;5002247;28;20029;-65
2022/03/01 00:53:24;;;;;;;131.85;52.60;;;;;;;0.50;68.38;102762.94;5008600;28;20084;-65
2022/03/01 00:55:49;;;;;;;95.28;39.67;;;;;;;0.47;68.40;102760.19;4993620;28;20397;-65
2022/03/01 00:58:14;;;;;;;103.03;43.78;;;;;;;0.43;68.72;102750.47;5018602;28;20456;-65
2022/03/01 01:00:42;;;;;;;153.52;63.17;;;;;;;0.41;68.56;102760.69;5033683;28;20504;-65
2022/03/01 01:03:08;;;;;;;96.05;43.58;;;;;;;0.40;68.49;102756.31;5014869;28;20462;-65
2022/03/01 01:05:33;;;;;;;239.32;90.13;;;;;;;0.40;68.51;102755.44;5018382;28;20065;-64
2022/03/01 01:08:10;;;;;;;207.90;82.75;;;;;;;0.41;68.38;102750.38;5011248;28;20389;-65
2022/03/01 01:10:35;;;;;;;159.63;60.55;;;;;;;0.41;68.14;102757.25;5018957;28;20040;-65
2022/03/01 01:13:01;;;;;;;219.18;84.53;;;;;;;0.42;68.10;102756.44;5034988;28;20029;-66
2022/03/01 01:15:26;;;;;;;175.65;65.13;;;;;;;0.43;68.33;102747.88;5013955;28;20053;-65
2022/03/01 01:17:56;;;;;;;234.90;101.60;;;;;;;0.41;67.98;102750.38;5015178;28;20071;-65
2022/03/01 01:20:22;;;;;;;290.08;115.00;;;;;;;0.39;68.02;102756.25;5032097;28;20505;-65
2022/03/01 01:22:47;;;;;;;287.75;111.93;;;;;;;0.39;68.30;102756.25;5009811;28;20041;-65
2022/03/01 01:25:20;;;;;;;209.90;83.75;;;;;;;0.37;68.07;102750.09;5014608;28;20127;-65
2022/03/01 01:27:50;;;;;;;500.52;218.60;;;;;;;0.37;68.33;102757.84;5031375;28;20106;-65
2022/03/01 01:30:22;;;;;;;421.15;164.95;;;;;;;0.39;67.85;102753.66;5031836;28;20481;-65
2022/03/01 01:32:48;;;;;;;138.85;57.55;;;;;;;0.35;68.42;102755.19;5029324;28;20124;-65
2022/03/01 01:35:19;;;;;;;57.83;26.20;;;;;;;0.33;68.14;102746.44;4998957;28;20033;-65
2022/03/01 01:37:48;;;;;;;109.18;45.45;;;;;;;0.29;68.62;102749.66;5014481;28;20056;-65
2022/03/01 01:40:18;;;;;;;62.78;28.70;;;;;;;0.26;68.60;102754.59;5015256;28;20029;-65
2022/03/01 01:42:44;;;;;;;54.47;27.65;;;;;;;0.24;68.67;102762.25;5029943;28;20021;-65
2022/03/01 01:45:10;;;;;;;44.58;23.80;;;;;;;0.22;68.94;102758.69;5018218;28;20394;-65
2022/03/01 01:47:36;;;;;;;141.65;56.45;;;;;;;0.23;68.35;102760.47;5030058;28;20386;-65
2022/03/01 01:50:06;;;;;;;236.02;95.28;;;;;;;0.25;68.44;102753.72;5020326;28;20026;-65
2022/03/01 01:52:32;;;;;;;159.18;63.03;;;;;;;0.27;68.24;102746.94;5024722;28;20061;-65
2022/03/01 01:55:00;;;;;;;42.28;21.60;;;;;;;0.27;68.12;102749.53;5013113;28;20100;-65
2022/03/01 01:57:28;;;;;;;118.78;49.42;;;;;;;0.27;68.02;102751.22;5009663;28;20037;-65
2022/03/01 01:59:56;;;;;;;76.93;27.27;;;;;;;0.27;67.88;102751.22;5031360;28;20094;-66
2022/03/01 02:02:25;;;;;;;54.50;27.65;;;;;;;0.23;68.12;102752.75;5014407;28;20539;-65
2022/03/01 02:04:50;;;;;;;36.67;17.65;;;;;;;0.20;68.85;102742.22;5014551;28;20029;-65
2022/03/01 02:07:17;;;;;;;31.30;17.67;;;;;;;0.18;68.86;102751.56;4991780;28;20451;-65
2022/03/01 02:09:43;;;;;;;38.50;18.88;;;;;;;0.15;68.83;102746.22;5030833;28;20029;-65
2022/03/01 02:12:09;;;;;;;24.83;14.77;;;;;;;0.16;69.26;102748.00;5011068;28;20060;-64
2022/03/01 02:14:37;;;;;;;83.03;30.40;;;;;;;0.13;69.57;102750.38;5031543;28;20081;-65
2022/03/01 02:17:05;;;;;;;55.00;26.67;;;;;;;0.12;69.70;102743.47;5013188;28;20068;-65
2022/03/01 02:19:31;;;;;;;68.47;33.45;;;;;;;0.10;69.85;102751.09;5031690;28;20037;-65
2022/03/01 02:21:57;;;;;;;390.02;143.52;;;;;;;0.09;69.71;102748.44;5030945;28;20492;-65
2022/03/01 02:24:28;;;;;;;238.45;87.63;;;;;;;0.09;69.53;102751.00;5028237;28;20034;-64
2022/03/01 02:26:59;;;;;;;125.93;50.65;;;;;;;0.12;69.34;102753.78;5029497;28;20048;-65
2022/03/01 02:29:28;;;;;;;167.02;65.80;;;;;;;0.11;69.54;102746.81;5031571;28;20033;-65
2022/03/01 02:31:59;;;;;;;90.85;36.90;;;;;;;0.08;69.74;102744.94;4992477;28;20045;-65
2022/03/01 02:34:25;;;;;;;108.10;45.08;;;;;;;0.07;69.37;102738.03;5031060;28;20036;-64
2022/03/01 02:36:51;;;;;;;100.18;35.92;;;;;;;0.05;69.48;102738.72;5013370;28;20022;-65
2022/03/01 02:39:17;;;;;;;126.05;50.55;;;;;;;0.02;69.73;102734.25;5031195;28;20029;-65
2022/03/01 02:41:46;;;;;;;170.88;63.50;;;;;;;0.03;69.56;102742.88;5030328;28;20159;-64
2022/03/01 02:44:13;;;;;;;121.88;48.83;;;;;;;0.05;69.43;102736.16;5030394;28;20032;-64
2022/03/01 02:46:39;;;;;;;94.38;39.28;;;;;;;0.06;69.16;102748.22;5008585;28;20108;-65
2022/03/01 02:49:06;;;;;;;136.98;51.22;;;;;;;0.03;68.91;102738.63;5028076;28;20044;-65
2022/03/01 02:51:34;;;;;;;72.05;31.95;;;;;;;0.04;69.03;102742.09;5011129;28;20047;-65
2022/03/01 02:54:01;;;;;;;41.45;19.77;;;;;;;-0.01;69.48;102739.22;5012740;28;20389;-65
2022/03/01 02:56:27;;;;;;;27.20;16.17;;;;;;;-0.06;69.74;102736.38;5029722;28;20087;-65
2022/03/01 02:58:55;;;;;;;29.63;17.25;;;;;;;-0.07;70.29;102729.44;5030100;28;20036;-65
2022/03/01 03:01:22;;;;;;;26.33;16.25;;;;;;;-0.12;70.43;102732.50;5002589;28;20501;-65
2022/03/01 03:03:50;;;;;;;35.15;19.65;;;;;;;-0.12;70.36;102725.66;5030303;28;20026;-65
2022/03/01 03:06:19;;;;;;;46.92;23.98;;;;;;;-0.12;70.36;102730.81;5029776;28;20025;-65
2022/03/01 03:08:46;;;;;;;41.92;19.65;;;;;;;-0.11;70.08;102722.28;5023871;28;20049;-65
2022/03/01 03:11:11;;;;;;;66.45;27.90;;;;;;;-0.11;70.85;102719.72;5012777;28;20052;-65
2022/03/01 03:13:37;;;;;;;59.67;25.40;;;;;;;-0.12;71.13;102720.50;5028924;28;20453;-64
2022/03/01 03:16:04;;;;;;;141.40;58.88;;;;;;;-0.08;70.81;102717.31;5013485;28;20382;-65
2022/03/01 03:18:30;;;;;;;191.35;72.93;;;;;;;-0.07;70.05;102718.22;5008997;28;20065;-65
2022/03/01 03:20:56;;;;;;;70.82;30.17;;;;;;;-0.04;70.05;102714.16;5025532;28;20135;-65
2022/03/01 03:23:21;;;;;;;49.90;23.92;;;;;;;-0.02;70.02;102719.41;5010120;28;20030;-65
2022/03/01 03:25:51;;;;;;;27.20;17.30;;;;;;;0.01;69.78;102722.16;4986797;28;20393;-65
2022/03/01 03:28:17;;;;;;;59.88;27.95;;;;;;;0.02;69.99;102723.06;5029395;28;20037;-65
2022/03/01 03:30:43;;;;;;;31.10;17.20;;;;;;;0.02;69.72;102707.59;5011885;28;20095;-65
2022/03/01 03:33:08;;;;;;;24.48;16.25;;;;;;;0.02;69.75;102712.75;5012600;28;20030;-64
2022/03/01 03:35:34;;;;;;;35.45;19.52;;;;;;;0.04;69.78;102716.31;5027894;28;20075;-65
2022/03/01 03:38:04;;;;;;;92.13;38.85;;;;;;;0.08;69.88;102723.44;5012830;28;20416;-65
2022/03/01 03:40:30;;;;;;;;;;;;;;;0.10;68.67;102714.09;5035168;28;20045;-65
2022/03/01 03:42:55;;;;;;;83.38;37.22;;;;;;;0.06;69.48;102712.13;5022647;28;19936;-64
2022/03/01 03:45:21;;;;;;;24.63;14.38;;;;;;;0.04;68.91;102713.72;5032026;28;20040;-65
2022/03/01 03:47:49;;;;;;;22.02;14.57;;;;;;;0.04;69.68;102711.16;5026691;28;20462;-65
2022/03/01 03:50:17;;;;;;;33.13;17.27;;;;;;;0.04;70.12;102721.47;5025874;28;20052;-65
2022/03/01 03:52:45;;;;;;;26.05;16.63;;;;;;;0.03;70.05;102729.97;5018078;28;20036;-65
2022/03/01 03:55:11;;;;;;;22.73;15.82;;;;;;;0.03;70.04;102730.91;4987863;28;20026;-65
2022/03/01 03:57:37;;;;;;;29.33;16.45;;;;;;;0.02;69.75;102716.22;5013132;28;20029;-65
2022/03/01 04:00:06;;;;;;;21.33;15.70;;;;;;;0.04;69.96;102719.75;5035265;28;20029;-65
2022/03/01 04:02:36;;;;;;;25.67;15.75;;;;;;;0.01;69.60;102718.69;5029385;28;20060;-65
2022/03/01 04:05:02;;;;;;;24.50;16.85;;;;;;;-0.01;70.21;102708.31;5030845;28;20487;-65
2022/03/01 04:07:29;;;;;;;23.05;14.38;;;;;;;-0.03;70.27;102713.38;4985617;28;20121;-65
2022/03/01 04:09:55;;;;;;;22.20;14.73;;;;;;;-0.05;70.66;102712.34;5009315;28;20030;-64
2022/03/01 04:12:22;;;;;;;25.40;15.98;;;;;;;-0.04;70.41;102716.72;4992848;28;20091;-65
2022/03/01 04:14:50;;;;;;;32.97;20.17;;;;;;;-0.05;70.30;102714.94;5023010;28;20050;-65
2022/03/01 04:17:15;;;;;;;39.90;22.85;;;;;;;-0.01;70.19;102710.88;5025607;28;20037;-65
2022/03/01 04:19:43;;;;;;;118.15;60.05;;;;;;;0.03;69.28;102714.50;5013441;28;20040;-65
2022/03/01 04:22:09;;;;;;;158.10;77.05;;;;;;;0.04;69.43;102716.31;4996513;28;20049;-65
2022/03/01 04:24:34;;;;;;;66.88;34.25;;;;;;;0.06;69.40;102727.59;4993538;28;20456;-65
2022/03/01 04:26:59;;;;;;;51.22;26.65;;;;;;;0.11;69.47;102728.78;5029696;28;20481;-65
2022/03/01 04:29:27;;;;;;;82.63;40.78;;;;;;;0.10;69.06;102722.75;4987983;28;20045;-65
2022/03/01 04:31:55;;;;;;;118.57;46.90;;;;;;;0.11;69.11;102721.91;4990756;28;20037;-65
2022/03/01 04:34:21;;;;;;;65.90;30.10;;;;;;;0.13;68.94;102732.31;5026434;28;20045;-65
2022/03/01 04:36:53;;;;;;;52.17;25.13;;;;;;;0.15;69.00;102728.19;4992990;28;20026;-65
2022/03/01 04:39:19;;;;;;;25.75;16.25;;;;;;;0.16;68.59;102727.38;5008912;28;20044;-65
2022/03/01 04:41:48;;;;;;;117.78;46.22;;;;;;;0.18;68.75;102720.63;4994241;28;20034;-65
2022/03/01 04:44:16;;;;;;;31.38;18.80;;;;;;;0.21;68.38;102723.38;5028329;28;20203;-65
2022/03/01 04:46:42;;;;;;;25.35;14.43;;;;;;;0.16;69.10;102720.53;5011517;28;20490;-65
2022/03/01 04:49:07;;;;;;;80.65;41.92;;;;;;;0.19;69.31;102731.81;5005521;28;20037;-65
2022/03/01 04:51:34;;;;;;;48.50;25.10;;;;;;;0.19;68.41;102730.16;5013982;28;20022;-65
2022/03/01 04:53:59;;;;;;;30.20;16.48;;;;;;;0.21;68.57;102731.13;5016560;28;20547;-65
2022/03/01 04:56:25;;;;;;;30.38;17.40;;;;;;;0.20;68.74;102723.28;5032054;28;20037;-65
2022/03/01 04:58:52;;;;;;;39.95;22.27;;;;;;;0.21;69.42;102723.38;5012599;28;20060;-65
2022/03/01 05:01:20;;;;;;;25.38;15.63;;;;;;;0.21;69.22;102725.97;5008064;28;20048;-65
2022/03/01 05:03:46;;;;;;;22.50;14.25;;;;;;;0.21;69.47;102720.81;4999030;28;20029;-65
2022/03/01 05:06:13;;;;;;;24.52;16.25;;;;;;;0.23;69.54;102715.75;5013646;28;20033;-65
2022/03/01 05:08:41;;;;;;;27.00;16.35;;;;;;;0.22;69.56;102717.44;5013730;28;20037;-65
2022/03/01 05:11:07;;;;;;;26.80;17.15;;;;;;;0.19;69.86;102717.25;5032294;28;20041;-65
2022/03/01 05:13:32;;;;;;;28.42;16.08;;;;;;;0.20;70.07;102708.69;4998850;28;20090;-65
2022/03/01 05:15:58;;;;;;;23.83;16.40;;;;;;;0.18;69.84;102707.72;5030888;28;20084;-64
2022/03/01 05:18:23;;;;;;;26.92;17.38;;;;;;;0.14;70.40;102710.91;5015175;28;20041;-65
2022/03/01 05:20:49;;;;;;;31.52;19.88;;;;;;;0.14;70.70;102718.66;5024455;28;20049;-65
2022/03/01 05:23:15;;;;;;;46.83;21.77;;;;;;;0.14;69.77;102714.41;5031225;28;20093;-65
2022/03/01 05:25:43;;;;;;;33.83;17.80;;;;;;;0.15;70.21;102715.28;5014389;28;20033;-64
2022/03/01 05:28:11;;;;;;;27.90;15.88;;;;;;;0.17;69.58;102713.66;5004386;28;20026;-65
2022/03/01 05:30:40;;;;;;;30.77;19.83;;;;;;;0.19;69.32;102712.09;5030311;28;20033;-65
2022/03/01 05:33:07;;;;;;;27.77;15.80;;;;;;;0.21;69.11;102710.50;5028389;28;20590;-65
2022/03/01 05:35:33;;;;;;;25.25;16.30;;;;;;;0.21;68.65;102702.75;5014358;28;20038;-65
2022/03/01 05:37:59;;;;;;;24.63;17.70;;;;;;;0.22;68.75;102707.13;5012488;28;20021;-65
2022/03/01 05:40:27;;;;;;;29.95;17.60;;;;;;;0.22;68.85;102695.94;5009966;28;20033;-65
2022/03/01 05:42:53;;;;;;;26.45;15.52;;;;;;;0.22;68.79;102699.38;5030244;28;20528;-64
2022/03/01 05:45:18;;;;;;;29.52;17.08;;;;;;;0.22;69.03;102698.50;5002901;28;20044;-65
2022/03/01 05:47:47;;;;;;;30.13;18.35;;;;;;;0.21;69.37;102695.03;5029634;28;20124;-65
2022/03/01 05:50:14;;;;;;;23.73;15.88;;;;;;;0.17;69.92;102690.47;4995517;28;20037;-66
2022/03/01 05:52:40;;;;;;;22.13;16.38;;;;;;;0.14;69.98;102692.88;5027028;28;20449;-65
2022/03/01 05:55:10;;;;;;;28.88;15.02;;;;;;;0.09;70.71;102689.13;4994903;28;20025;-65
2022/03/01 05:57:39;;;;;;;28.67;17.70;;;;;;;0.07;70.23;102690.72;5031489;28;20037;-65
2022/03/01 06:00:08;;;;;;;27.73;17.23;;;;;;;0.04;70.37;102694.00;4997845;28;20107;-64
2022/03/01 06:02:34;;;;;;;23.42;15.50;;;;;;;0.05;70.45;102687.16;5030645;28;20029;-64
2022/03/01 06:05:02;;;;;;;27.20;15.02;;;;;;;-0.02;70.77;102676.47;5014333;28;20452;-65
2022/03/01 06:07:27;;;;;;;36.20;20.98;;;;;;;-0.03;70.43;102679.84;5012129;28;20397;-64
2022/03/01 06:09:53;;;;;;;42.60;22.52;;;;;;;-0.01;70.65;102682.53;4992236;28;20029;-65
2022/03/01 06:12:18;;;;;;;29.10;18.98;;;;;;;-0.03;70.53;102679.84;5014430;28;20030;-65
2022/03/01 06:14:43;;;;;;;44.15;27.00;;;;;;;-0.01;70.42;102674.78;5009312;28;20516;-64
2022/03/01 06:17:09;;;;;;;34.08;21.73;;;;;;;0.01;70.72;102683.50;5013677;28;20022;-65
2022/03/01 06:19:35;;;;;;;31.15;19.88;;;;;;;-0.01;70.90;102673.09;5011918;28;20456;-65
2022/03/01 06:22:01;;;;;;;89.82;43.75;;;;;;;-0.06;71.17;102676.19;4996195;28;20481;-65
2022/03/01 06:24:31;;;;;;;31.08;20.63;;;;;;;-0.09;71.36;102681.16;4987929;28;20069;-65
2022/03/01 06:26:58;;;;;;;25.38;17.25;;;;;;;-0.12;71.22;102681.84;5010069;28;20141;-64
2022/03/01 06:29:26;;;;;;;24.98;16.23;;;;;;;-0.14;71.14;102683.47;5006323;28;20034;-64
2022/03/01 06:31:54;;;;;;;27.48;16.83;;;;;;;-0.16;71.48;102682.44;5046040;28;20021;-65
2022/03/01 06:34:19;;;;;;;28.17;18.38;;;;;;;-0.13;70.88;102676.59;5011832;28;20026;-65
2022/03/01 06:36:45;;;;;;;28.10;17.40;;;;;;;-0.10;70.56;102679.38;5013748;28;20060;-64
2022/03/01 06:39:10;;;;;;;28.15;15.43;;;;;;;-0.06;70.61;102681.34;4997272;28;20404;-64
2022/03/01 06:41:35;;;;;;;27.52;17.60;;;;;;;-0.02;70.20;102688.47;4996775;28;20425;-65
2022/03/01 06:44:04;;;;;;;27.73;15.15;;;;;;;0.02;70.42;102699.88;4996511;28;20446;-65
2022/03/01 06:46:29;;;;;;;22.00;15.10;;;;;;;0.06;70.33;102705.31;5013550;28;20095;-65
2022/03/01 06:48:55;;;;;;;25.77;15.27;;;;;;;0.11;70.01;102710.72;5006049;28;20045;-65
2022/03/01 06:51:23;;;;;;;34.42;19.48;;;;;;;0.14;69.27;102710.91;4991530;28;20030;-65
2022/03/01 06:53:51;;;;;;;25.58;15.27;;;;;;;0.22;69.67;102719.13;5010798;28;20048;-65
2022/03/01 06:56:17;;;;;;;21.77;14.82;;;;;;;0.29;69.73;102723.88;5013254;28;20037;-67
2022/03/01 06:58:43;;;;;;;28.25;14.15;;;;;;;0.32;69.40;102727.50;5010012;28;20044;-65
2022/03/01 07:01:11;;;;;;;27.33;15.63;;;;;;;0.41;69.16;102728.88;5028698;28;20045;-66
2022/03/01 07:03:36;;;;;;;22.27;15.73;;;;;;;0.49;68.55;102731.09;5023092;28;20041;-65
2022/03/01 07:06:04;;;;;;;24.52;16.58;;;;;;;0.61;69.62;102740.38;4990681;28;20041;-65
2022/03/01 07:08:30;;;;;;;24.30;17.02;;;;;;;0.74;69.13;102732.56;5026488;28;20036;-65
2022/03/01 07:10:58;;;;;;;26.58;16.60;;;;;;;0.90;69.13;102734.34;5009721;28;20037;-64
2022/03/01 07:13:23;;;;;;;23.17;15.27;;;;;;;1.07;68.08;102745.66;5006277;28;20033;-65
2022/03/01 07:15:49;;;;;;;32.28;17.17;;;;;;;1.42;68.45;102746.75;5013097;28;20130;-65
2022/03/01 07:18:15;;;;;;;22.10;15.32;;;;;;;1.75;66.23;102744.28;5029595;28;20466;-65
2022/03/01 07:20:40;;;;;;;29.15;17.75;;;;;;;2.12;64.52;102740.22;4996595;28;20073;-65
2022/03/01 07:23:06;;;;;;;31.27;18.95;;;;;;;2.35;63.90;102742.31;5010533;28;20099;-65
2022/03/01 07:25:32;;;;;;;27.08;17.13;;;;;;;2.55;63.94;102748.53;5005213;28;20061;-65
2022/03/01 07:27:58;;;;;;;25.90;18.33;;;;;;;2.70;62.79;102743.28;5013451;28;20037;-65
2022/03/01 07:30:25;;;;;;;24.35;17.00;;;;;;;2.77;62.65;102734.09;5010512;28;20057;-66
2022/03/01 07:32:56;;;;;;;23.15;16.92;;;;;;;2.68;62.70;102729.34;5030208;28;20366;-65
2022/03/01 07:35:25;;;;;;;26.10;17.45;;;;;;;2.67;62.65;102739.63;5026125;28;20053;-66
2022/03/01 07:37:52;;;;;;;29.80;17.05;;;;;;;2.71;62.65;102736.41;5023829;28;20028;-65
2022/03/01 07:40:19;;;;;;;25.85;17.15;;;;;;;2.81;61.98;102740.34;5012685;28;20076;-65
2022/03/01 07:42:44;;;;;;;25.08;16.05;;;;;;;2.87;62.03;102748.41;5009661;28;20095;-65
2022/03/01 07:45:11;;;;;;;25.80;17.60;;;;;;;2.90;61.22;102749.47;5020581;28;20029;-65
2022/03/01 07:47:37;;;;;;;22.10;17.38;;;;;;;3.08;61.13;102751.19;5041947;28;20036;-65
2022/03/01 07:50:07;;;;;;;21.95;15.60;;;;;;;3.10;60.69;102755.66;5021505;28;20030;-65
2022/03/01 07:52:33;;;;;;;87.60;51.83;;;;;;;3.04;61.33;102757.03;4996549;28;20065;-65
2022/03/01 07:55:00;;;;;;;104.40;67.95;;;;;;;2.93;61.34;102756.47;5013181;28;20466;-65
2022/03/01 07:57:26;;;;;;;45.30;36.67;;;;;;;2.89;62.44;102746.81;5012681;28;20064;-66
2022/03/01 07:59:51;;;;;;;37.42;25.35;;;;;;;2.87;61.99;102740.66;5027874;28;20060;-65
2022/03/01 08:02:17;;;;;;;44.40;36.88;;;;;;;2.87;62.72;102745.81;5011794;28;20042;-65
2022/03/01 08:04:43;;;;;;;39.60;26.73;;;;;;;2.82;62.06;102748.19;5003769;28;20037;-65
2022/03/01 08:07:12;;;;;;;88.88;54.63;;;;;;;2.74;62.96;102744.31;5006909;28;20072;-65
2022/03/01 08:09:38;;;;;;;38.15;24.13;;;;;;;2.71;63.23;102742.44;5023217;28;20173;-65
2022/03/01 08:12:05;;;;;;;50.58;27.73;;;;;;;2.59;63.20;102741.84;5021527;28;20392;-65
2022/03/01 08:14:31;;;;;;;129.57;66.30;;;;;;;2.50;62.89;102750.03;5009361;28;20497;-64
2022/03/01 08:16:58;;;;;;;79.93;45.50;;;;;;;2.36;63.48;102746.69;5023560;28;20370;-65
2022/03/01 08:19:27;;;;;;;90.93;44.33;;;;;;;2.28;64.15;102747.09;5008825;28;20116;-66
2022/03/01 08:21:53;;;;;;;57.20;29.27;;;;;;;2.21;63.91;102751.06;4999085;28;20037;-65
2022/03/01 08:24:18;;;;;;;91.20;48.95;;;;;;;2.19;64.32;102742.34;5029268;28;20037;-65
2022/03/01 08:26:44;;;;;;;40.15;24.88;;;;;;;2.18;64.87;102746.59;4989915;28;20053;-65
2022/03/01 08:29:12;;;;;;;56.42;31.13;;;;;;;2.24;65.45;102740.88;5016742;28;20055;-65
2022/03/01 08:31:41;;;;;;;49.60;27.70;;;;;;;2.23;65.09;102744.28;5013633;28;20032;-65
2022/03/01 08:34:11;;;;;;;48.13;30.20;;;;;;;2.27;65.77;102742.72;5034105;28;20033;-65
2022/03/01 08:36:36;;;;;;;37.10;23.95;;;;;;;2.29;65.58;102749.78;5010177;28;20500;-65
2022/03/01 08:39:02;;;;;;;113.78;62.15;;;;;;;2.32;64.07;102755.09;5017276;28;20029;-65
2022/03/01 08:41:28;;;;;;;75.80;40.45;;;;;;;2.37;65.31;102748.50;5008020;28;20037;-65
2022/03/01 08:43:53;;;;;;;81.45;45.60;;;;;;;2.44;64.20;102752.25;5016078;28;20474;-65
2022/03/01 08:46:19;;;;;;;39.63;26.95;;;;;;;2.52;65.30;102755.28;5008492;28;20103;-65
2022/03/01 08:48:45;;;;;;;41.25;26.65;;;;;;;2.61;66.83;102753.16;5032282;28;20029;-65
2022/03/01 08:51:11;;;;;;;52.22;29.85;;;;;;;2.65;66.95;102749.03;5016574;28;20560;-65
2022/03/01 08:53:38;;;;;;;32.67;19.10;;;;;;;2.70;64.77;102748.47;4996533;28;20025;-65
2022/03/01 08:56:04;;;;;;;36.28;25.75;;;;;;;2.75;64.66;102754.75;5041520;28;20053;-65
2022/03/01 08:58:30;;;;;;;38.58;24.90;;;;;;;2.84;65.62;102756.03;5032772;28;20037;-65
2022/03/01 09:00:55;;;;;;;30.27;21.95;;;;;;;2.91;63.62;102763.31;5008248;28;20042;-65
2022/03/01 09:03:23;;;;;;;46.97;28.10;;;;;;;2.99;63.01;102777.53;5012251;28;20048;-65
2022/03/01 09:05:48;;;;;;;33.35;24.17;;;;;;;3.08;63.41;102774.50;5012600;28;20517;-65
2022/03/01 09:08:15;;;;;;;74.38;44.85;;;;;;;3.20;62.93;102779.41;5007440;28;20042;-65
2022/03/01 09:10:41;;;;;;;30.63;22.27;;;;;;;3.40;62.66;102791.63;5029153;28;20038;-64
2022/03/01 09:13:06;;;;;;;22.83;16.65;;;;;;;3.58;61.42;102798.56;5031199;28;20033;-65
2022/03/01 09:15:32;;;;;;;30.90;19.17;;;;;;;3.76;60.58;102796.81;5015967;28;20049;-65
2022/03/01 09:18:03;;;;;;;73.72;38.05;;;;;;;3.99;60.52;102789.25;5029359;28;20034;-65
2022/03/01 09:20:30;;;;;;;80.13;45.03;;;;;;;4.28;60.34;102794.88;5024083;28;20040;-66
2022/03/01 09:22:57;;;;;;;52.28;31.15;;;;;;;4.49;59.70;102785.47;5031141;28;20469;-65
2022/03/01 09:25:23;;;;;;;26.77;16.40;;;;;;;4.98;59.92;102788.44;5016278;28;20370;-66
2022/03/01 09:27:48;;;;;;;22.60;16.50;;;;;;;5.66;59.21;102780.81;5030945;28;20469;-65
2022/03/01 09:30:16;;;;;;;22.58;17.13;;;;;;;6.36;54.27;102792.19;5032708;28;20087;-65
2022/03/01 09:32:45;;;;;;;23.13;15.57;;;;;;;6.92;55.52;102784.63;5007142;28;20033;-66
2022/03/01 09:35:11;;;;;;;32.08;20.60;;;;;;;6.92;52.08;102790.75;5017501;28;20077;-66
2022/03/01 09:37:37;;;;;;;20.08;15.30;;;;;;;7.09;52.75;102782.59;5014092;28;20033;-66
2022/03/01 09:40:06;;;;;;;69.38;34.65;;;;;;;7.01;52.65;102779.75;5014122;28;20392;-66
2022/03/01 09:42:33;;;;;;;61.78;28.60;;;;;;;6.91;51.79;102777.63;5008354;28;20122;-65
2022/03/01 09:45:00;;;;;;;72.90;37.13;;;;;;;6.72;51.17;102778.72;5031992;28;20071;-65
2022/03/01 09:47:26;;;;;;;56.42;29.85;;;;;;;6.55;52.50;102781.63;5022880;28;20068;-66
2022/03/01 09:49:52;;;;;;;54.85;30.88;;;;;;;6.46;52.34;102778.66;5013759;28;20122;-66
2022/03/01 09:52:20;;;;;;;54.08;32.25;;;;;;;6.29;51.80;102772.84;5030299;28;20485;-67
2022/03/01 09:54:49;;;;;;;77.70;39.05;;;;;;;6.21;53.18;102767.34;5028994;28;20405;-65
2022/03/01 09:57:16;;;;;;;129.95;58.13;;;;;;;6.15;52.75;102771.44;5029055;28;20029;-65
2022/03/01 09:59:42;;;;;;;37.47;23.27;;;;;;;6.12;53.63;102784.34;5013911;28;20401;-65
2022/03/01 10:02:09;;;;;;;82.35;47.30;;;;;;;6.32;54.12;102780.78;5013014;28;20048;-65
2022/03/01 10:04:57;;;;;;;29.00;18.25;;;;;;;6.66;54.02;102776.78;5025974;28;20041;-66
2022/03/01 10:07:26;;;;;;;20.45;14.80;;;;;;;7.45;51.28;102776.81;5028168;28;20354;-65
2022/03/01 10:09:52;;;;;;;24.00;19.50;;;;;;;8.18;50.79;102771.22;5027205;28;20044;-66
2022/03/01 10:12:23;;;;;;;30.35;20.98;;;;;;;8.72;47.62;102777.97;5025365;28;20514;-65
2022/03/01 10:14:54;;;;;;;;;;;;;;;8.83;49.50;102779.13;5025238;28;20057;-65
2022/03/01 10:17:20;;;;;;;28.58;17.23;;;;;;;8.55;48.31;102786.25;5024130;28;19925;-65
2022/03/01 10:19:48;;;;;;;46.88;28.33;;;;;;;8.21;47.83;102793.06;5011025;28;20038;-65
2022/03/01 10:22:15;;;;;;;38.60;25.67;;;;;;;7.79;49.06;102804.88;4995272;28;20030;-65
2022/03/01 10:24:48;;;;;;;25.83;17.17;;;;;;;7.52;50.06;102796.19;5013197;28;20084;-65
2022/03/01 10:27:13;;;;;;;30.27;20.35;;;;;;;7.15;47.84;102798.44;5009102;28;20072;-65
2022/03/01 10:29:47;;;;;;;33.97;22.60;;;;;;;6.91;50.16;102793.25;4994941;28;20099;-66
2022/03/01 10:32:13;;;;;;;23.42;16.73;;;;;;;6.90;50.69;102788.91;5028051;28;20552;-65
2022/03/01 10:34:38;;;;;;;28.17;17.45;;;;;;;6.83;50.55;102781.72;5030239;28;20033;-69
2022/03/01 10:37:04;;;;;;;23.80;16.83;;;;;;;6.72;50.53;102771.81;5012981;28;20033;-69
2022/03/01 10:39:30;;;;;;;31.17;20.73;;;;;;;6.67;50.30;102782.91;5008109;28;20125;-69
2022/03/01 10:41:57;;;;;;;24.27;16.67;;;;;;;6.70;52.01;102780.38;5009742;28;20080;-69
2022/03/01 10:44:28;;;;;;;33.00;21.80;;;;;;;6.72;51.23;102774.41;5004181;28;20038;-69
2022/03/01 10:47:01;;;;;;;24.02;16.85;;;;;;;6.76;49.84;102775.38;5027634;28;20079;-69
2022/03/01 10:49:29;;;;;;;25.17;16.58;;;;;;;6.91;50.52;102767.19;5030443;28;20133;-69
2022/03/01 10:52:04;;;;;;;37.13;22.75;;;;;;;6.88;50.65;102762.78;5023141;28;20434;-69
2022/03/01 10:54:39;;;;;;;53.67;30.27;;;;;;;6.92;49.64;102768.97;5026809;28;20036;-69
2022/03/01 10:57:07;;;;;;;49.45;29.33;;;;;;;7.01;50.37;102776.22;5027611;28;20465;-69
2022/03/01 10:59:35;;;;;;;57.08;31.42;;;;;;;7.00;49.41;102771.88;5003956;28;20030;-69
2022/03/01 11:02:01;;;;;;;58.92;31.42;;;;;;;7.01;49.70;102774.53;5017551;28;20025;-70
2022/03/01 11:04:27;;;;;;;56.08;31.50;;;;;;;7.09;50.65;102787.81;5019514;28;20040;-69
2022/03/01 11:07:02;;;;;;;45.58;27.10;;;;;;;7.15;50.59;102792.34;4996721;28;20034;-69
2022/03/01 11:09:30;;;;;;;34.00;20.70;;;;;;;7.21;50.67;102788.22;5026894;28;20504;-69
2022/03/01 11:11:57;;;;;;;23.77;17.38;;;;;;;7.23;49.30;102781.34;5016384;28;20026;-69
2022/03/01 11:14:38;;;;;;;31.30;19.23;;;;;;;7.29;50.08;102783.25;5010710;28;20052;-69